createdAt,value
2023-01-13T13:34:52.305Z,101615.63
2023-01-13T13:37:57.649Z,101620.66
2023-01-13T13:40:43.762Z,101616.19
2023-01-13T13:43:34.924Z,101612.56
2023-01-13T13:46:52.630Z,101615.09
2023-01-13T13:49:42.417Z,101609.63
2023-01-13T13:57:01.204Z,101614.94
2023-01-13T14:09:21.306Z,101604.44
2023-01-13T14:15:28.837Z,101597.41
2023-01-13T14:18:01.002Z,101584.59
2023-01-13T14:20:34.047Z,101590.09
2023-01-13T14:23:06.829Z,101585.75
2023-01-13T14:26:17.040Z,101595.16
2023-01-13T14:29:22.776Z,101578.63
2023-01-13T14:31:54.449Z,101592.09
2023-01-13T14:38:08.289Z,101585.91
2023-01-13T14:40:47.181Z,101604.44
2023-01-13T14:43:36.710Z,101574.97
2023-01-13T14:53:45.262Z,101606.53
2023-01-13T14:56:55.443Z,101615.53
2023-01-13T15:03:42.620Z,101589.59
2023-01-13T15:06:38.231Z,101594.69
2023-01-13T15:10:01.258Z,101635.63
2023-01-13T15:12:39.448Z,101650.63
2023-01-13T15:15:35.152Z,101601.44
2023-01-13T15:18:13.657Z,101618.16
2023-01-13T15:21:00.193Z,101642.78
2023-01-13T15:24:09.426Z,101602.13
2023-01-13T15:26:46.713Z,101598.28
2023-01-13T15:29:17.129Z,101600.28
2023-01-13T15:31:47.245Z,101609.00
2023-01-13T15:34:15.502Z,101604.44
2023-01-13T15:36:56.770Z,101637.97
2023-01-13T15:42:25.108Z,101631.75
2023-01-13T15:45:23.357Z,101591.97
2023-01-13T15:48:05.181Z,101601.28
2023-01-13T15:50:33.873Z,101625.47
2023-01-13T15:53:04.361Z,101609.81
2023-01-13T15:55:53.654Z,101575.22
2023-01-13T15:58:22.907Z,101605.94
2023-01-13T16:00:54.157Z,101599.41
2023-01-13T16:03:22.595Z,101570.00
2023-01-13T16:09:50.163Z,101567.59
2023-01-13T16:19:01.931Z,101600.13
2023-01-13T16:21:32.440Z,101596.63
2023-01-13T16:24:02.688Z,101611.44
2023-01-13T16:26:46.471Z,101630.69
2023-01-13T16:29:23.260Z,101612.13
2023-01-13T16:31:53.834Z,101597.16
2023-01-13T16:34:30.959Z,101570.28
2023-01-13T16:36:59.605Z,101586.78
2023-01-13T16:39:27.984Z,101584.16
2023-01-13T16:42:38.083Z,101556.19
2023-01-13T16:45:09.900Z,101569.66
2023-01-13T16:47:42.714Z,101580.25
2023-01-13T16:50:39.705Z,101578.97
2023-01-13T16:53:19.498Z,101579.91
2023-01-13T16:55:48.144Z,101570.88
2023-01-13T16:58:18.602Z,101600.72
2023-01-13T17:00:56.150Z,101585.84
2023-01-13T17:03:37.076Z,101593.53
2023-01-13T17:06:25.758Z,101597.84
2023-01-13T17:08:54.899Z,101561.00
2023-01-13T17:11:23.228Z,101596.34
2023-01-13T17:14:33.830Z,101589.09
2023-01-13T17:17:04.931Z,101590.78
2023-01-13T17:19:33.209Z,101588.53
2023-01-13T17:22:04.297Z,101585.13
2023-01-13T17:24:35.261Z,101558.78
2023-01-13T17:27:06.043Z,101585.13
2023-01-13T17:29:34.420Z,101594.66
2023-01-13T17:32:19.212Z,101596.34
2023-01-13T17:34:49.634Z,101601.06
2023-01-13T17:37:24.827Z,101580.22
2023-01-13T17:39:57.992Z,101591.28
2023-01-13T17:42:28.077Z,101574.91
2023-01-13T17:45:01.588Z,101567.16
2023-01-13T17:47:31.371Z,101557.22
2023-01-13T17:50:31.556Z,101551.81
2023-01-13T17:53:00.325Z,101550.50
2023-01-13T17:55:29.846Z,101556.53
2023-01-13T17:57:57.984Z,101561.38
2023-01-13T18:00:26.310Z,101574.84
2023-01-13T18:02:55.838Z,101569.28
2023-01-13T18:05:28.000Z,101569.28
2023-01-13T18:07:56.197Z,101569.53
2023-01-13T18:10:25.566Z,101562.94
2023-01-13T18:12:56.512Z,101564.19
2023-01-13T18:15:26.685Z,101560.41
2023-01-13T18:18:06.929Z,101554.00
2023-01-13T18:20:52.645Z,101543.91
2023-01-13T18:23:38.555Z,101538.41
2023-01-13T18:26:33.524Z,101548.69
2023-01-13T18:29:01.799Z,101546.44
2023-01-13T18:31:31.412Z,101532.97
2023-01-13T18:34:03.005Z,101552.06
2023-01-13T18:36:31.857Z,101555.19
2023-01-13T18:39:09.334Z,101526.31
2023-01-13T18:41:58.965Z,101549.63
2023-01-13T18:44:30.964Z,101515.69
2023-01-13T18:47:05.413Z,101537.84
2023-01-13T18:49:42.509Z,101550.84
2023-01-13T18:52:10.800Z,101536.19
2023-01-13T18:54:39.624Z,101513.44
2023-01-13T18:57:07.827Z,101506.16
2023-01-13T18:59:36.198Z,101504.22
2023-01-13T19:02:12.133Z,101516.59
2023-01-13T19:04:43.327Z,101518.53
2023-01-13T19:07:13.396Z,101507.06
2023-01-13T19:09:42.419Z,101494.00
2023-01-13T19:12:12.551Z,101502.41
2023-01-13T19:14:42.546Z,101505.06
2023-01-13T19:17:14.489Z,101503.38
2023-01-13T19:19:45.495Z,101492.00
2023-01-13T19:22:16.196Z,101498.16
2023-01-13T19:24:58.676Z,101477.81
2023-01-13T19:27:31.116Z,101491.66
2023-01-13T19:30:00.796Z,101477.25
2023-01-13T19:32:31.803Z,101476.13
2023-01-13T19:35:23.366Z,101463.38
2023-01-13T19:37:51.717Z,101441.66
2023-01-13T19:40:27.398Z,101457.63
2023-01-13T19:43:13.559Z,101453.91
2023-01-13T19:45:44.939Z,101459.72
2023-01-13T19:48:16.338Z,101440.44
2023-01-13T19:50:46.416Z,101438.63
2023-01-13T19:53:19.006Z,101430.59
2023-01-13T19:55:58.708Z,101428.19
2023-01-13T19:58:29.904Z,101422.91
2023-01-13T20:00:58.166Z,101423.34
2023-01-13T20:03:31.279Z,101418.16
2023-01-13T20:06:08.794Z,101414.94
2023-01-13T20:08:36.893Z,101418.56
2023-01-13T20:11:22.600Z,101424.81
2023-01-13T20:13:54.304Z,101411.75
2023-01-13T20:16:33.090Z,101432.22
2023-01-13T20:19:04.328Z,101424.50
2023-01-13T20:21:41.962Z,101432.78
2023-01-13T20:24:15.987Z,101414.63
2023-01-13T20:26:44.194Z,101424.50
2023-01-13T20:29:19.703Z,101406.22
2023-01-13T20:32:02.579Z,101371.34
2023-01-13T20:34:53.931Z,101413.97
2023-01-13T20:37:24.949Z,101416.34
2023-01-13T20:40:03.233Z,101399.47
2023-01-13T20:42:32.838Z,101384.41
2023-01-13T20:45:02.873Z,101388.94
2023-01-13T20:47:32.164Z,101373.75
2023-01-13T20:50:00.410Z,101339.81
2023-01-13T20:52:32.398Z,101368.88
2023-01-13T20:55:03.977Z,101347.59
2023-01-13T20:57:47.184Z,101349.84
2023-01-13T21:00:16.232Z,101355.78
2023-01-13T21:02:44.404Z,101355.50
2023-01-13T21:05:16.060Z,101326.41
2023-01-13T21:07:45.600Z,101345.59
2023-01-13T21:10:15.080Z,101326.41
2023-01-13T21:13:03.966Z,101333.44
2023-01-13T21:15:35.267Z,101302.94
2023-01-13T21:18:22.243Z,101317.41
2023-01-13T21:21:11.849Z,101314.34
2023-01-13T21:23:42.376Z,101305.97
2023-01-13T21:26:10.682Z,101272.28
2023-01-13T21:28:38.739Z,101277.31
2023-01-13T21:31:07.332Z,101283.22
2023-01-13T21:33:38.787Z,101281.81
2023-01-13T21:36:07.712Z,101275.53
2023-01-13T21:38:36.249Z,101270.09
2023-01-13T21:41:16.559Z,101254.72
2023-01-13T21:44:05.467Z,101241.16
2023-01-13T21:46:53.707Z,101256.38
2023-01-13T21:49:24.238Z,101228.56
2023-01-13T21:51:52.369Z,101243.09
2023-01-13T21:54:20.792Z,101244.66
2023-01-13T21:56:55.277Z,101231.22
2023-01-13T21:59:25.103Z,101205.78
2023-01-13T22:02:09.499Z,101211.22
2023-01-13T22:04:52.496Z,101217.81
2023-01-13T22:07:21.390Z,101206.06
2023-01-13T22:09:49.720Z,101197.09
2023-01-13T22:12:22.919Z,101182.84
2023-01-13T22:14:52.335Z,101161.63
2023-01-13T22:17:21.413Z,101175.59
2023-01-13T22:19:49.860Z,101167.47
2023-01-13T22:22:18.920Z,101146.53
2023-01-13T22:25:10.498Z,101134.78
2023-01-13T22:27:41.011Z,101118.03
2023-01-13T22:30:10.754Z,101126.69
2023-01-13T22:35:25.611Z,101073.16
2023-01-13T22:37:56.722Z,101091.16
2023-01-13T22:40:25.181Z,101094.38
2023-01-13T22:42:54.594Z,101083.75
2023-01-13T22:45:27.813Z,101070.75
2023-01-13T22:47:57.438Z,101075.78
2023-01-13T22:50:28.411Z,101064.47
2023-01-13T22:52:56.622Z,101066.13
2023-01-13T22:55:24.631Z,101054.13
2023-01-13T22:57:57.070Z,101020.19
2023-01-13T23:00:25.428Z,101041.25
2023-01-13T23:02:53.501Z,101036.66
2023-01-13T23:05:21.461Z,101039.97
2023-01-13T23:07:52.856Z,101019.03
2023-01-13T23:10:21.253Z,101010.38
2023-01-13T23:12:49.343Z,101007.84
2023-01-13T23:15:22.602Z,101003.81
2023-01-13T23:17:51.738Z,100987.69
2023-01-13T23:20:22.312Z,100974.41
2023-01-13T23:22:50.438Z,100958.66
2023-01-13T23:25:18.847Z,100932.72
2023-01-13T23:27:46.811Z,100961.00
2023-01-13T23:30:20.085Z,100960.28
2023-01-13T23:32:49.530Z,100951.22
2023-01-13T23:35:25.066Z,100938.91
2023-01-13T23:37:53.109Z,100931.50
2023-01-13T23:40:21.507Z,100902.31
2023-01-13T23:42:51.061Z,100915.56
2023-01-13T23:45:22.008Z,100898.22
2023-01-13T23:50:34.699Z,100886.50
2023-01-13T23:53:02.644Z,100847.44
2023-01-13T23:55:33.962Z,100879.34
2023-01-13T23:58:04.393Z,100861.88
